Aviation Digital Data Service (ADDS)

Output produced by TAFs form (2227 UTC 26 January 2015)
found at http://aviationweather.gov/adds/tafs/
 
KLND 261724Z 2618/2718 VRB05KT P6SM SCT250